createdAt,value
2022-12-03T00:00:56.913Z,98165.64
2022-12-03T00:03:29.360Z,98164.41
2022-12-03T00:06:00.390Z,98164.96
2022-12-03T00:08:31.458Z,98164.74
2022-12-03T00:11:02.485Z,98163.23
2022-12-03T00:13:33.439Z,98161.77
2022-12-03T00:16:04.381Z,98163.46
2022-12-03T00:18:35.329Z,98164.55
2022-12-03T00:21:06.658Z,98168.11
2022-12-03T00:23:42.083Z,98166.66
2022-12-03T00:26:13.440Z,98166.25
2022-12-03T00:28:44.564Z,98168.23
2022-12-03T00:31:15.444Z,98169.30
2022-12-03T00:33:46.812Z,98170.20
2022-12-03T00:36:17.942Z,98167.85
2022-12-03T00:38:49.028Z,98166.70
2022-12-03T00:41:20.024Z,98164.52
2022-12-03T00:43:51.098Z,98165.59
2022-12-03T00:46:21.805Z,98164.88
2022-12-03T00:48:53.053Z,98166.20
2022-12-03T00:51:23.983Z,98165.23
2022-12-03T00:53:54.959Z,98163.61
2022-12-03T00:56:26.106Z,98162.02
2022-12-03T00:58:57.173Z,98161.41
2022-12-03T01:01:28.516Z,98159.75
2022-12-03T01:04:00.246Z,98159.66
2022-12-03T01:06:31.230Z,98161.23
2022-12-03T01:09:02.401Z,98158.54
2022-12-03T01:11:39.666Z,98160.41
2022-12-03T01:14:13.151Z,98163.34
2022-12-03T01:16:57.814Z,98164.75
2022-12-03T01:19:28.686Z,98166.82
2022-12-03T01:21:59.623Z,98164.89
2022-12-03T01:24:30.974Z,98164.75
2022-12-03T01:27:04.184Z,98159.14
2022-12-03T01:29:35.235Z,98157.96
2022-12-03T01:32:19.395Z,98158.09
2022-12-03T01:34:53.130Z,98158.14
2022-12-03T01:37:36.946Z,98161.27
2022-12-03T01:40:13.200Z,98157.46
2022-12-03T01:42:44.936Z,98153.99
2022-12-03T01:45:22.816Z,98153.31
2022-12-03T01:47:53.794Z,98158.67
2022-12-03T01:50:31.417Z,98159.89
2022-12-03T01:53:02.614Z,98159.33
2022-12-03T01:55:33.524Z,98157.11
2022-12-03T01:58:05.286Z,98157.86
2022-12-03T02:00:36.262Z,98154.33
2022-12-03T02:03:16.406Z,98154.13
2022-12-03T02:05:48.229Z,98151.73
2022-12-03T02:08:34.795Z,98150.71
2022-12-03T02:11:09.543Z,98151.20
2022-12-03T02:13:41.205Z,98149.98
2022-12-03T02:16:12.864Z,98148.18
2022-12-03T02:18:44.449Z,98148.55
2022-12-03T02:21:22.874Z,98146.48
2022-12-03T02:24:10.113Z,98144.66
2022-12-03T02:26:41.271Z,98145.56
2022-12-03T02:29:16.909Z,98148.66
2022-12-03T02:31:48.094Z,98150.25
2022-12-03T02:34:39.624Z,98150.34
2022-12-03T02:37:14.693Z,98150.04
2022-12-03T02:39:51.067Z,98150.89
2022-12-03T02:42:37.920Z,98152.06
2022-12-03T02:45:12.342Z,98155.02
2022-12-03T02:47:45.589Z,98156.67
2022-12-03T02:50:19.775Z,98155.70
2022-12-03T02:52:53.749Z,98151.75
2022-12-03T02:55:25.745Z,98149.64
2022-12-03T02:57:56.623Z,98148.95
2022-12-03T03:00:27.853Z,98152.84
2022-12-03T03:02:58.751Z,98145.55
2022-12-03T03:05:29.721Z,98148.72
2022-12-03T03:08:02.818Z,98149.09
2022-12-03T03:10:36.653Z,98150.76
2022-12-03T03:13:11.007Z,98148.00
2022-12-03T03:15:43.539Z,98150.63
2022-12-03T03:18:16.030Z,98153.16
2022-12-03T03:20:47.490Z,98153.14
2022-12-03T03:23:22.158Z,98151.95
2022-12-03T03:25:58.046Z,98150.14
2022-12-03T03:28:30.792Z,98148.61
2022-12-03T03:31:04.041Z,98152.31
2022-12-03T03:33:35.662Z,98148.04
2022-12-03T03:36:07.693Z,98144.77
2022-12-03T03:38:39.932Z,98142.64
2022-12-03T03:41:12.351Z,98139.77
2022-12-03T03:43:45.079Z,98138.64
2022-12-03T03:46:17.382Z,98135.96
2022-12-03T03:48:50.046Z,98134.79
2022-12-03T03:51:22.022Z,98130.98
2022-12-03T03:53:53.573Z,98133.70
2022-12-03T03:56:24.838Z,98128.38
2022-12-03T03:58:56.103Z,98128.16
2022-12-03T04:01:25.945Z,98123.34
2022-12-03T04:03:57.406Z,98130.02
2022-12-03T04:06:26.864Z,98124.92
2022-12-03T04:08:57.766Z,98125.10
2022-12-03T04:11:46.337Z,98123.65
2022-12-03T04:14:17.267Z,98121.16
2022-12-03T04:16:48.540Z,98115.11
2022-12-03T04:19:19.401Z,98117.88
2022-12-03T04:22:07.897Z,98115.70
2022-12-03T04:24:38.638Z,98115.90
2022-12-03T04:27:32.556Z,98110.58
2022-12-03T04:30:03.291Z,98110.20
2022-12-03T04:32:51.668Z,98111.71
2022-12-03T04:35:39.895Z,98110.81
2022-12-03T04:38:10.953Z,98112.27
2022-12-03T04:40:59.715Z,98111.60
2022-12-03T04:43:30.892Z,98112.55
2022-12-03T04:46:02.433Z,98114.95
2022-12-03T04:48:33.646Z,98112.70
2022-12-03T04:51:04.413Z,98109.49
2022-12-03T04:53:36.315Z,98111.02
2022-12-03T04:56:08.281Z,98118.31
2022-12-03T04:58:39.117Z,98114.71
2022-12-03T05:01:10.111Z,98113.11
2022-12-03T05:03:41.080Z,98113.08
2022-12-03T05:06:12.248Z,98118.89
2022-12-03T05:08:43.147Z,98114.80
2022-12-03T05:11:14.108Z,98116.08
2022-12-03T05:13:45.125Z,98116.20
2022-12-03T05:16:16.118Z,98119.17
2022-12-03T05:18:47.248Z,98117.97
2022-12-03T05:21:18.115Z,98114.70
2022-12-03T05:23:49.054Z,98110.77
2022-12-03T05:26:20.144Z,98114.12
2022-12-03T05:28:51.572Z,98115.68
2022-12-03T05:31:20.960Z,98117.73
2022-12-03T05:33:51.991Z,98116.89
2022-12-03T05:36:25.354Z,98116.86
2022-12-03T05:38:56.548Z,98115.86
2022-12-03T05:41:44.865Z,98119.22
2022-12-03T05:44:20.333Z,98122.30
2022-12-03T05:46:51.592Z,98120.71
2022-12-03T05:49:22.566Z,98120.70
2022-12-03T05:51:58.225Z,98118.78
2022-12-03T05:54:29.961Z,98117.66
2022-12-03T05:57:00.880Z,98121.52
2022-12-03T05:59:31.868Z,98121.45
2022-12-03T06:02:02.825Z,98120.05
2022-12-03T06:04:33.870Z,98122.63
2022-12-03T06:07:07.437Z,98122.55
2022-12-03T06:09:40.707Z,98119.00
2022-12-03T06:12:12.520Z,98118.60
2022-12-03T06:14:43.323Z,98122.56
2022-12-03T06:17:14.196Z,98120.97
2022-12-03T06:19:45.250Z,98125.79
2022-12-03T06:22:16.522Z,98120.86
2022-12-03T06:24:47.524Z,98122.76
2022-12-03T06:27:18.878Z,98122.30
2022-12-03T06:29:49.925Z,98125.06
2022-12-03T06:32:21.512Z,98129.11
2022-12-03T06:34:52.913Z,98131.95
2022-12-03T06:37:22.379Z,98131.13
2022-12-03T06:39:53.254Z,98128.77
2022-12-03T06:42:24.256Z,98126.89
2022-12-03T06:44:55.900Z,98126.91
2022-12-03T06:47:27.318Z,98126.46
2022-12-03T06:49:58.265Z,98125.58
2022-12-03T06:52:29.156Z,98124.45
2022-12-03T06:55:00.269Z,98123.98
2022-12-03T06:57:31.209Z,98126.52
2022-12-03T07:00:02.374Z,98127.12
2022-12-03T07:02:32.344Z,98128.33
2022-12-03T07:05:03.525Z,98119.27
2022-12-03T07:07:34.836Z,98119.91
2022-12-03T07:10:07.501Z,98118.17
2022-12-03T07:12:38.286Z,98120.02
2022-12-03T07:15:10.769Z,98121.68
2022-12-03T07:17:41.582Z,98121.46
2022-12-03T07:20:13.977Z,98124.48
2022-12-03T07:22:44.971Z,98123.48
2022-12-03T07:25:21.415Z,98126.91
2022-12-03T07:27:54.148Z,98123.68
2022-12-03T07:30:25.878Z,98121.55
2022-12-03T07:32:56.665Z,98120.48
2022-12-03T07:35:27.602Z,98115.64
2022-12-03T07:37:58.519Z,98112.95
2022-12-03T07:40:29.575Z,98108.39
2022-12-03T07:43:00.366Z,98104.84
2022-12-03T07:45:34.115Z,98103.08
2022-12-03T07:48:04.974Z,98103.70
2022-12-03T07:50:35.937Z,98103.82
2022-12-03T07:53:06.756Z,98108.98
2022-12-03T07:55:37.774Z,98109.09
2022-12-03T07:58:09.177Z,98111.77
2022-12-03T08:00:40.427Z,98113.80
2022-12-03T08:03:11.706Z,98116.48
2022-12-03T08:05:42.669Z,98117.50
2022-12-03T08:08:13.994Z,98116.17
2022-12-03T08:10:43.702Z,98117.58
2022-12-03T08:13:17.088Z,98115.61
2022-12-03T08:15:48.377Z,98111.92
2022-12-03T08:18:20.012Z,98114.27
2022-12-03T08:20:52.678Z,98115.54
2022-12-03T08:23:25.905Z,98113.77
2022-12-03T08:26:02.129Z,98113.83
2022-12-03T08:28:33.777Z,98111.98
2022-12-03T08:31:13.301Z,98112.15
2022-12-03T08:33:44.219Z,98114.20
2022-12-03T08:36:18.000Z,98112.27
2022-12-03T08:38:53.021Z,98109.55
2022-12-03T08:41:39.040Z,98111.15
2022-12-03T08:44:29.997Z,98111.27
2022-12-03T08:47:13.072Z,98115.84
2022-12-03T08:49:48.202Z,98117.90
2022-12-03T08:52:21.929Z,98123.70
2022-12-03T08:54:55.392Z,98122.20
2022-12-03T08:57:31.447Z,98124.36
2022-12-03T09:00:15.463Z,98123.36
2022-12-03T09:02:50.451Z,98123.96
2022-12-03T09:05:23.318Z,98126.61
2022-12-03T09:07:54.486Z,98130.81
2022-12-03T09:10:25.830Z,98130.77
2022-12-03T09:12:56.770Z,98132.98
2022-12-03T09:15:27.689Z,98131.80
2022-12-03T09:17:58.722Z,98131.93
2022-12-03T09:20:29.687Z,98129.92
2022-12-03T09:23:00.639Z,98133.02
2022-12-03T09:25:31.902Z,98134.54
2022-12-03T09:28:02.956Z,98132.96
2022-12-03T09:30:35.077Z,98131.36
2022-12-03T09:33:06.232Z,98128.92
2022-12-03T09:35:37.219Z,98127.16
2022-12-03T09:38:08.219Z,98125.61
2022-12-03T09:40:39.232Z,98123.98
2022-12-03T09:43:10.525Z,98116.64
2022-12-03T09:45:40.144Z,98115.10
2022-12-03T09:48:12.257Z,98109.19
2022-12-03T09:50:47.091Z,98110.27
2022-12-03T09:53:21.720Z,98106.09
2022-12-03T09:55:53.096Z,98104.56
2022-12-03T09:58:24.191Z,98106.58
2022-12-03T10:00:56.258Z,98105.71
2022-12-03T10:03:31.462Z,98113.08
2022-12-03T10:06:02.411Z,98115.46
2022-12-03T10:08:33.881Z,98113.42
2022-12-03T10:11:04.856Z,98112.38
2022-12-03T10:13:37.334Z,98111.64
2022-12-03T10:16:13.272Z,98114.00
2022-12-03T10:18:47.295Z,98109.86
2022-12-03T10:21:25.858Z,98106.94
2022-12-03T10:24:23.731Z,98107.21
2022-12-03T10:26:56.975Z,98109.95
2022-12-03T10:29:33.673Z,98107.89
2022-12-03T10:32:04.825Z,98103.20
2022-12-03T10:34:35.015Z,98105.77
2022-12-03T10:37:18.145Z,98105.28
2022-12-03T10:39:58.233Z,98109.35
2022-12-03T10:42:31.142Z,98105.85
2022-12-03T10:45:16.859Z,98105.58
2022-12-03T10:48:06.824Z,98106.75
2022-12-03T10:50:38.102Z,98099.77
2022-12-03T10:53:07.470Z,98100.79
2022-12-03T10:55:42.240Z,98100.41
2022-12-03T10:58:21.936Z,98096.40
2022-12-03T11:00:54.803Z,98094.52
2022-12-03T11:03:28.231Z,98093.75
2022-12-03T11:06:01.406Z,98092.44
2022-12-03T11:08:36.188Z,98090.03
2022-12-03T11:11:14.603Z,98090.92
2022-12-03T11:13:51.968Z,98090.79
2022-12-03T11:17:08.615Z,98089.20
2022-12-03T11:19:53.359Z,98087.17
2022-12-03T11:22:43.527Z,98083.73
2022-12-03T11:25:57.276Z,98085.40
2022-12-03T11:28:54.202Z,98080.54
2022-12-03T11:31:42.892Z,98077.73
2022-12-03T11:34:50.114Z,98071.16
2022-12-03T11:37:28.533Z,98064.61
2022-12-03T11:40:37.732Z,98058.16
2022-12-03T11:43:12.502Z,98055.13
2022-12-03T11:45:43.611Z,98054.14
2022-12-03T11:48:16.087Z,98054.22
2022-12-03T11:50:53.257Z,98048.34
2022-12-03T11:53:27.000Z,98046.77
2022-12-03T11:56:09.201Z,98043.03
2022-12-03T11:58:43.567Z,98042.43
2022-12-03T12:01:16.873Z,98046.39
2022-12-03T12:03:49.880Z,98041.84
2022-12-03T12:06:22.028Z,98046.20
2022-12-03T12:09:03.597Z,98048.98
2022-12-03T12:11:36.944Z,98055.90
2022-12-03T12:14:09.386Z,98059.27
2022-12-03T12:16:52.219Z,98058.52
2022-12-03T12:19:42.547Z,98056.15
2022-12-03T12:22:18.985Z,98052.80
2022-12-03T12:24:54.949Z,98049.11
2022-12-03T12:27:32.075Z,98040.14
2022-12-03T12:30:07.475Z,98037.05
2022-12-03T12:32:46.975Z,98033.54
2022-12-03T12:35:20.522Z,98037.93
2022-12-03T12:37:58.903Z,98033.27
2022-12-03T12:40:33.603Z,98029.65
2022-12-03T12:43:15.482Z,98032.83
2022-12-03T12:45:48.876Z,98036.22
2022-12-03T12:48:24.975Z,98035.05
2022-12-03T12:51:01.645Z,98032.14
2022-12-03T12:53:35.297Z,98031.86
2022-12-03T12:56:15.187Z,98021.04
2022-12-03T12:58:46.153Z,98021.90
2022-12-03T13:01:26.234Z,98022.52
2022-12-03T13:03:57.960Z,98022.08
2022-12-03T13:06:31.935Z,98031.16
2022-12-03T13:09:03.041Z,98032.63
2022-12-03T13:11:42.286Z,98031.94
2022-12-03T13:14:17.746Z,98025.17
2022-12-03T13:16:50.076Z,98024.38
2022-12-03T13:19:25.741Z,98023.21
2022-12-03T13:21:58.080Z,98020.39
2022-12-03T13:24:33.770Z,98018.55
2022-12-03T13:27:21.704Z,98014.94
2022-12-03T13:29:56.261Z,98017.09
2022-12-03T13:32:31.960Z,98015.67
2022-12-03T13:35:08.134Z,98016.33
2022-12-03T13:37:39.984Z,98020.04
2022-12-03T13:40:21.828Z,98020.62
2022-12-03T13:42:54.293Z,98021.34
2022-12-03T13:45:39.906Z,98022.48
2022-12-03T13:48:21.209Z,98017.45
2022-12-03T13:50:53.568Z,98015.73
2022-12-03T13:53:26.866Z,98015.77
2022-12-03T13:56:01.845Z,98013.76
2022-12-03T13:58:32.871Z,98015.73
2022-12-03T14:01:04.005Z,98014.64
2022-12-03T14:03:35.174Z,98011.25
2022-12-03T14:06:06.571Z,98012.79
2022-12-03T14:08:38.085Z,98014.96
2022-12-03T14:11:09.155Z,98011.89
2022-12-03T14:13:40.118Z,98011.53
2022-12-03T14:16:11.316Z,98011.30
2022-12-03T14:18:42.243Z,98012.23
2022-12-03T14:21:13.236Z,98012.02
2022-12-03T14:23:44.212Z,98013.98
2022-12-03T14:26:15.340Z,98019.38
2022-12-03T14:28:44.863Z,98013.23
2022-12-03T14:31:16.016Z,98013.69
2022-12-03T14:33:46.814Z,98014.39
2022-12-03T14:36:17.734Z,98013.09
2022-12-03T14:38:48.661Z,98017.91
2022-12-03T14:41:36.893Z,98017.65
2022-12-03T14:44:07.941Z,98016.39
2022-12-03T14:46:39.002Z,98021.98
2022-12-03T14:49:09.789Z,98021.47
2022-12-03T14:51:40.663Z,98022.65
2022-12-03T14:54:11.878Z,98022.63
2022-12-03T14:56:42.960Z,98024.14
2022-12-03T14:59:14.238Z,98022.86
2022-12-03T15:01:43.693Z,98027.89
2022-12-03T15:04:14.474Z,98024.81
2022-12-03T15:06:46.467Z,98024.73
2022-12-03T15:09:17.510Z,98019.30
2022-12-03T15:11:48.590Z,98023.41
2022-12-03T15:14:19.695Z,98022.84
2022-12-03T15:16:50.722Z,98019.48
2022-12-03T15:19:21.675Z,98016.68
2022-12-03T15:21:52.564Z,98017.39
2022-12-03T15:24:23.857Z,98018.58
2022-12-03T15:26:55.899Z,98020.22
2022-12-03T15:29:27.067Z,98020.98
2022-12-03T15:31:59.463Z,98019.52
2022-12-03T15:34:30.618Z,98021.91
2022-12-03T15:37:01.630Z,98021.41
2022-12-03T15:39:35.747Z,98020.00
2022-12-03T15:42:06.784Z,98022.85
2022-12-03T15:44:37.770Z,98026.66
2022-12-03T15:47:08.903Z,98024.79
2022-12-03T15:49:39.769Z,98026.38
2022-12-03T15:52:10.733Z,98024.05
2022-12-03T15:54:41.822Z,98022.08
2022-12-03T15:57:12.794Z,98020.06
2022-12-03T15:59:43.737Z,98020.15
2022-12-03T16:02:15.387Z,98023.98
2022-12-03T16:04:46.794Z,98028.90
2022-12-03T16:07:17.762Z,98026.88
2022-12-03T16:09:48.869Z,98019.63
2022-12-03T16:12:19.837Z,98008.73
2022-12-03T16:14:50.849Z,98007.89
2022-12-03T16:17:21.924Z,98008.15
2022-12-03T16:19:53.313Z,98004.48
2022-12-03T16:22:24.464Z,98004.83
2022-12-03T16:24:55.552Z,98002.39
2022-12-03T16:27:26.436Z,98003.13
2022-12-03T16:29:57.534Z,98000.30
2022-12-03T16:32:28.552Z,97995.55
2022-12-03T16:34:59.960Z,97998.35
2022-12-03T16:37:31.123Z,98000.84
2022-12-03T16:40:02.395Z,98002.38
2022-12-03T16:42:34.214Z,98002.23
2022-12-03T16:45:33.862Z,97999.30
2022-12-03T16:48:05.549Z,97994.68
2022-12-03T16:50:37.809Z,97992.36
2022-12-03T16:53:08.689Z,97997.23
2022-12-03T16:55:39.710Z,97995.17
2022-12-03T16:58:10.714Z,97986.85
2022-12-03T17:00:41.699Z,97987.18
2022-12-03T17:03:12.571Z,97982.20
2022-12-03T17:05:43.525Z,97978.20
2022-12-03T17:08:15.121Z,97981.40
2022-12-03T17:10:46.296Z,97983.09
2022-12-03T17:13:15.953Z,97978.95
2022-12-03T17:15:47.075Z,97978.19
2022-12-03T17:18:17.994Z,97972.75
2022-12-03T17:20:50.982Z,97972.73
2022-12-03T17:23:22.020Z,97972.95
2022-12-03T17:25:53.323Z,97975.19
2022-12-03T17:28:24.238Z,97976.52
2022-12-03T17:30:55.105Z,97968.63
2022-12-03T17:33:25.890Z,97965.91
2022-12-03T17:35:56.877Z,97968.36
2022-12-03T17:38:27.909Z,97968.06
2022-12-03T17:40:58.925Z,97968.23
2022-12-03T17:43:29.907Z,97971.77
2022-12-03T17:46:01.333Z,97969.04
2022-12-03T17:48:31.436Z,97970.11
2022-12-03T17:51:02.610Z,97972.55
2022-12-03T17:53:33.531Z,97976.88
2022-12-03T17:56:04.757Z,97974.86
2022-12-03T17:58:35.766Z,97979.41
2022-12-03T18:01:08.657Z,97977.18
2022-12-03T18:03:39.661Z,97974.05
2022-12-03T18:06:10.929Z,97975.34
2022-12-03T18:08:41.897Z,97973.47
2022-12-03T18:11:12.912Z,97971.29
2022-12-03T18:13:43.866Z,97971.62
2022-12-03T18:16:15.090Z,97975.69
2022-12-03T18:18:46.562Z,97974.03
2022-12-03T18:21:17.806Z,97969.94
2022-12-03T18:23:49.013Z,97974.11
2022-12-03T18:26:19.804Z,97972.09
2022-12-03T18:28:51.027Z,97974.90
2022-12-03T18:31:23.454Z,97972.86
2022-12-03T18:33:54.712Z,97970.22
2022-12-03T18:36:30.025Z,97970.05
2022-12-03T18:39:01.476Z,97971.27
2022-12-03T18:41:34.196Z,97973.98
2022-12-03T18:44:07.757Z,97972.60
2022-12-03T18:46:53.120Z,97968.78
2022-12-03T18:49:25.321Z,97961.27
2022-12-03T18:51:59.516Z,97960.00
2022-12-03T18:54:30.939Z,97959.55
2022-12-03T18:57:01.883Z,97962.06
2022-12-03T18:59:32.934Z,97959.46
2022-12-03T19:02:03.874Z,97960.34
2022-12-03T19:04:35.112Z,97964.00
2022-12-03T19:07:05.964Z,97966.48
2022-12-03T19:09:36.910Z,97968.55
2022-12-03T19:12:14.448Z,97970.11
2022-12-03T19:14:45.801Z,97967.08
2022-12-03T19:17:17.015Z,97964.45
2022-12-03T19:19:48.341Z,97963.09
2022-12-03T19:22:19.541Z,97969.34
2022-12-03T19:24:50.675Z,97971.09
2022-12-03T19:27:21.815Z,97970.25
2022-12-03T19:29:53.184Z,97972.81
2022-12-03T19:32:24.531Z,97973.08
2022-12-03T19:34:55.280Z,97970.84
2022-12-03T19:37:26.300Z,97971.63
2022-12-03T19:39:57.819Z,97975.23
2022-12-03T19:42:31.131Z,97970.17
2022-12-03T19:45:01.893Z,97964.84
2022-12-03T19:47:33.897Z,97964.14
2022-12-03T19:50:05.126Z,97968.24
2022-12-03T19:52:37.551Z,97968.19
2022-12-03T19:55:09.463Z,97966.58
2022-12-03T19:57:40.219Z,97964.66
2022-12-03T20:00:11.244Z,97966.25
2022-12-03T20:02:42.720Z,97974.21
2022-12-03T20:05:13.615Z,97978.21
2022-12-03T20:07:44.377Z,97976.10
2022-12-03T20:10:15.658Z,97974.39
2022-12-03T20:12:46.030Z,97974.02
2022-12-03T20:15:17.371Z,97978.95
2022-12-03T20:17:48.492Z,97970.23
2022-12-03T20:20:19.526Z,97968.50
2022-12-03T20:22:50.405Z,97969.42
2022-12-03T20:25:21.376Z,97969.48
2022-12-03T20:27:52.182Z,97969.55
2022-12-03T20:30:23.284Z,97967.54
2022-12-03T20:32:54.092Z,97966.79
2022-12-03T20:35:25.098Z,97969.89
2022-12-03T20:37:56.017Z,97970.15
2022-12-03T20:40:27.022Z,97969.98
2022-12-03T20:42:57.905Z,97971.88
2022-12-03T20:45:29.078Z,97969.48
2022-12-03T20:48:00.130Z,97962.16
2022-12-03T20:50:31.149Z,97962.62
2022-12-03T20:53:23.283Z,97961.94
2022-12-03T20:55:59.122Z,97961.14
2022-12-03T20:58:30.914Z,97965.98
2022-12-03T21:01:15.584Z,97959.13
2022-12-03T21:03:48.593Z,97960.36
2022-12-03T21:06:20.654Z,97962.81
2022-12-03T21:08:53.378Z,97960.39
2022-12-03T21:11:26.018Z,97958.36
2022-12-03T21:13:57.556Z,97959.23
2022-12-03T21:17:05.729Z,97956.10
2022-12-03T21:19:23.091Z,97953.09
2022-12-03T21:21:52.641Z,97954.37
2022-12-03T21:24:23.961Z,97955.86
2022-12-03T21:26:55.110Z,97956.98
2022-12-03T21:29:26.261Z,97958.60
2022-12-03T21:31:57.009Z,97955.66
2022-12-03T21:34:34.222Z,97957.33
2022-12-03T21:37:07.183Z,97959.24
2022-12-03T21:39:38.462Z,97954.95
2022-12-03T21:42:35.008Z,97948.31
2022-12-03T21:45:00.694Z,97946.86
2022-12-03T21:47:36.911Z,97946.63
2022-12-03T21:50:12.295Z,97947.72
2022-12-03T21:52:43.682Z,97946.11
2022-12-03T21:55:14.647Z,97947.20
2022-12-03T21:57:45.695Z,97945.86
2022-12-03T22:00:20.226Z,97945.52
2022-12-03T22:02:52.598Z,97946.59
2022-12-03T22:05:23.889Z,97943.91
2022-12-03T22:07:55.127Z,97941.23
2022-12-03T22:10:26.178Z,97942.95
2022-12-03T22:12:57.321Z,97943.88
2022-12-03T22:15:28.178Z,97939.08
2022-12-03T22:17:59.352Z,97938.39
2022-12-03T22:20:30.242Z,97936.93
2022-12-03T22:23:01.453Z,97932.52
2022-12-03T22:25:32.479Z,97926.23
2022-12-03T22:28:03.532Z,97920.84
2022-12-03T22:30:34.596Z,97919.84
2022-12-03T22:33:05.541Z,97914.48
2022-12-03T22:35:36.442Z,97912.55
2022-12-03T22:38:07.507Z,97914.11
2022-12-03T22:40:41.589Z,97914.05
2022-12-03T22:43:12.559Z,97916.88
2022-12-03T22:45:43.714Z,97915.63
2022-12-03T22:48:14.902Z,97917.33
2022-12-03T22:50:47.554Z,97915.46
2022-12-03T22:53:19.140Z,97912.20
2022-12-03T22:55:57.138Z,97912.13
2022-12-03T22:58:29.583Z,97913.20
2022-12-03T23:01:03.090Z,97914.58
2022-12-03T23:03:34.592Z,97912.50
2022-12-03T23:06:09.614Z,97910.36
2022-12-03T23:08:40.851Z,97907.09
2022-12-03T23:11:12.097Z,97906.73
2022-12-03T23:13:43.486Z,97899.19
2022-12-03T23:16:17.189Z,97900.16
2022-12-03T23:18:48.572Z,97896.45
2022-12-03T23:21:28.929Z,97893.81
2022-12-03T23:24:01.873Z,97891.98
2022-12-03T23:26:34.905Z,97892.14
2022-12-03T23:29:06.701Z,97892.36
2022-12-03T23:31:37.706Z,97891.05
2022-12-03T23:34:07.412Z,97885.98
2022-12-03T23:36:38.576Z,97890.15
2022-12-03T23:39:09.561Z,97887.48
2022-12-03T23:41:40.453Z,97889.52
2022-12-03T23:44:11.377Z,97886.07
2022-12-03T23:46:42.636Z,97886.83
2022-12-03T23:49:13.651Z,97887.25
2022-12-03T23:51:44.728Z,97887.86
2022-12-03T23:54:15.958Z,97887.46
2022-12-03T23:56:46.324Z,97880.41
2022-12-03T23:59:17.605Z,97878.52
